createdAt,value
2023-02-07T00:00:42.030Z,12.53
2023-02-07T00:03:08.849Z,7.77
2023-02-07T00:05:38.443Z,11.33
2023-02-07T00:08:06.497Z,13.23
2023-02-07T00:10:33.504Z,24.53
2023-02-07T00:13:00.165Z,19.43
2023-02-07T00:15:27.321Z,10.60
2023-02-07T00:17:53.900Z,10.53
2023-02-07T00:20:21.219Z,9.17
2023-02-07T00:22:47.804Z,10.40
2023-02-07T00:25:14.423Z,8.00
2023-02-07T00:27:41.103Z,8.33
2023-02-07T00:30:08.139Z,9.10
2023-02-07T00:32:35.322Z,8.97
2023-02-07T00:35:02.504Z,9.13
2023-02-07T00:37:29.127Z,18.47
2023-02-07T00:39:55.702Z,10.97
2023-02-07T00:42:22.347Z,10.73
2023-02-07T00:44:48.920Z,10.50
2023-02-07T00:47:15.452Z,8.83
2023-02-07T00:49:42.012Z,12.17
2023-02-07T00:52:08.601Z,20.40
2023-02-07T00:54:35.393Z,7.80
2023-02-07T00:57:02.045Z,9.90
2023-02-07T00:59:28.613Z,10.73
2023-02-07T01:01:55.251Z,8.43
2023-02-07T01:04:21.859Z,18.20
2023-02-07T01:06:48.454Z,9.57
2023-02-07T01:09:15.131Z,8.47
2023-02-07T01:11:41.752Z,9.87
2023-02-07T01:14:08.529Z,10.40
2023-02-07T01:16:36.144Z,8.87
2023-02-07T01:19:08.270Z,10.07
2023-02-07T01:21:35.108Z,9.07
2023-02-07T01:24:01.768Z,10.37
2023-02-07T01:26:28.361Z,9.80
2023-02-07T01:28:56.158Z,8.37
2023-02-07T01:31:23.929Z,9.93
2023-02-07T01:33:55.717Z,10.93
2023-02-07T01:36:22.807Z,9.17
2023-02-07T01:38:49.406Z,8.37
2023-02-07T01:41:15.962Z,8.20
2023-02-07T01:44:04.782Z,9.80
2023-02-07T01:46:32.869Z,8.23
2023-02-07T01:49:04.166Z,9.90
2023-02-07T01:51:31.836Z,11.37
2023-02-07T01:54:01.867Z,11.93
2023-02-07T01:56:31.917Z,11.67
2023-02-07T01:58:59.661Z,12.10
2023-02-07T02:01:26.727Z,15.03
2023-02-07T02:03:56.761Z,14.43
2023-02-07T02:06:25.913Z,10.13
2023-02-07T02:08:58.159Z,11.93
2023-02-07T02:11:45.380Z,11.97
2023-02-07T02:14:30.787Z,11.00
2023-02-07T02:17:56.029Z,12.43
2023-02-07T02:20:25.209Z,11.40
2023-02-07T02:23:30.308Z,8.20
2023-02-07T02:26:17.043Z,9.98
2023-02-07T02:29:06.949Z,10.43
2023-02-07T02:31:58.110Z,10.87
2023-02-07T02:34:51.736Z,10.13
2023-02-07T02:37:28.110Z,9.73
2023-02-07T02:40:08.228Z,11.03
2023-02-07T02:42:38.186Z,10.57
2023-02-07T02:45:11.133Z,10.63
2023-02-07T02:47:39.901Z,9.77
2023-02-07T02:50:12.814Z,8.80
2023-02-07T02:52:50.275Z,9.17
2023-02-07T02:55:18.357Z,9.53
2023-02-07T02:58:02.313Z,9.10
2023-02-07T03:00:43.100Z,11.37
2023-02-07T03:03:49.180Z,10.60
2023-02-07T03:06:41.098Z,8.80
2023-02-07T03:09:10.586Z,8.73
2023-02-07T03:11:55.738Z,9.33
2023-02-07T03:14:22.312Z,9.23
2023-02-07T03:16:51.093Z,9.40
2023-02-07T03:19:34.010Z,11.37
2023-02-07T03:22:10.400Z,10.00
2023-02-07T03:24:41.819Z,10.43
2023-02-07T03:27:09.826Z,9.03
2023-02-07T03:29:37.887Z,10.43
2023-02-07T03:32:06.552Z,10.53
2023-02-07T03:34:39.305Z,9.27
2023-02-07T03:37:25.906Z,8.53
2023-02-07T03:39:52.699Z,8.63
2023-02-07T03:43:08.286Z,9.03
2023-02-07T03:45:34.845Z,10.53
2023-02-07T03:48:01.402Z,10.30
2023-02-07T03:50:28.036Z,10.83
2023-02-07T03:52:54.659Z,9.30
2023-02-07T03:55:21.267Z,10.37
2023-02-07T03:57:47.899Z,7.10
2023-02-07T04:00:15.729Z,7.20
2023-02-07T04:02:42.471Z,8.10
2023-02-07T04:05:09.292Z,9.20
2023-02-07T04:07:35.979Z,11.03
2023-02-07T04:10:03.447Z,9.23
2023-02-07T04:12:32.944Z,12.23
2023-02-07T04:15:03.670Z,10.40
2023-02-07T04:17:31.522Z,10.17
2023-02-07T04:19:58.351Z,11.23
2023-02-07T04:22:24.906Z,11.97
2023-02-07T04:24:51.476Z,14.73
2023-02-07T04:27:18.049Z,9.63
2023-02-07T04:29:44.711Z,15.10
2023-02-07T04:32:11.316Z,12.23
2023-02-07T04:34:37.947Z,10.83
2023-02-07T04:37:04.638Z,10.30
2023-02-07T04:39:31.217Z,14.30
2023-02-07T04:41:57.945Z,9.57
2023-02-07T04:44:24.536Z,10.43
2023-02-07T04:46:51.249Z,10.47
2023-02-07T04:49:17.794Z,9.57
2023-02-07T04:51:44.400Z,11.03
2023-02-07T04:54:11.483Z,9.97
2023-02-07T04:56:38.156Z,9.47
2023-02-07T04:59:04.791Z,11.57
2023-02-07T05:01:31.749Z,11.93
2023-02-07T05:03:58.338Z,10.40
2023-02-07T05:06:24.913Z,12.33
2023-02-07T05:08:51.528Z,12.97
2023-02-07T05:11:18.654Z,10.83
2023-02-07T05:13:45.297Z,12.97
2023-02-07T05:16:11.935Z,16.17
2023-02-07T05:18:38.643Z,13.33
2023-02-07T05:21:05.424Z,15.93
2023-02-07T05:23:32.092Z,14.47
2023-02-07T05:25:58.716Z,12.40
2023-02-07T05:28:25.291Z,10.93
2023-02-07T05:30:56.282Z,12.87
2023-02-07T05:33:22.978Z,13.90
2023-02-07T05:35:49.571Z,15.97
2023-02-07T05:38:17.644Z,15.30
2023-02-07T05:40:44.983Z,11.27
2023-02-07T05:43:12.585Z,11.00
2023-02-07T05:45:40.120Z,11.13
2023-02-07T05:48:07.171Z,11.80
2023-02-07T05:50:33.770Z,13.30
2023-02-07T05:53:00.361Z,11.80
2023-02-07T05:55:26.933Z,14.37
2023-02-07T05:57:53.617Z,14.00
2023-02-07T06:00:20.560Z,13.47
2023-02-07T06:02:47.315Z,11.03
2023-02-07T06:05:17.121Z,14.37
2023-02-07T06:07:47.215Z,14.43
2023-02-07T06:10:14.911Z,13.07
2023-02-07T06:12:41.613Z,11.47
2023-02-07T06:15:08.736Z,14.10
2023-02-07T06:17:35.436Z,18.40
2023-02-07T06:20:02.080Z,11.83
2023-02-07T06:22:28.818Z,15.07
2023-02-07T06:24:55.478Z,15.33
2023-02-07T06:27:22.086Z,17.70
2023-02-07T06:29:48.735Z,15.23
2023-02-07T06:32:15.349Z,16.10
2023-02-07T06:34:41.924Z,15.13
2023-02-07T06:37:08.545Z,14.07
2023-02-07T06:39:35.129Z,11.87
2023-02-07T06:42:01.732Z,13.43
2023-02-07T06:44:28.344Z,14.93
2023-02-07T06:46:54.950Z,13.80
2023-02-07T06:49:21.542Z,17.73
2023-02-07T06:51:48.173Z,16.17
2023-02-07T06:54:14.845Z,11.97
2023-02-07T06:56:41.625Z,16.07
2023-02-07T06:59:08.283Z,16.50
2023-02-07T07:01:35.037Z,14.67
2023-02-07T07:04:01.649Z,11.03
2023-02-07T07:06:28.240Z,11.10
2023-02-07T07:08:54.852Z,9.40
2023-02-07T07:11:21.488Z,16.97
2023-02-07T07:13:48.238Z,16.23
2023-02-07T07:16:14.875Z,8.80
2023-02-07T07:18:41.840Z,8.87
2023-02-07T07:21:09.339Z,7.20
2023-02-07T07:23:36.065Z,6.23
2023-02-07T07:26:02.868Z,7.63
2023-02-07T07:28:29.962Z,7.53
2023-02-07T07:31:02.803Z,8.30
2023-02-07T07:33:29.633Z,7.80
2023-02-07T07:36:01.042Z,8.63
2023-02-07T07:38:27.885Z,8.73
2023-02-07T07:40:54.608Z,10.57
2023-02-07T07:43:21.285Z,9.13
2023-02-07T07:45:53.102Z,10.63
2023-02-07T07:48:20.408Z,9.23
2023-02-07T07:50:47.106Z,11.27
2023-02-07T07:53:13.742Z,12.97
2023-02-07T07:55:40.354Z,13.03
2023-02-07T07:58:07.849Z,8.83
2023-02-07T08:00:34.487Z,8.63
2023-02-07T08:03:01.414Z,9.57
2023-02-07T08:05:27.997Z,9.67
2023-02-07T08:07:54.668Z,8.77
2023-02-07T08:10:21.325Z,10.27
2023-02-07T08:12:47.956Z,8.27
2023-02-07T08:15:14.596Z,9.10
2023-02-07T08:17:41.324Z,8.33
2023-02-07T08:20:08.643Z,7.43
2023-02-07T08:22:35.557Z,9.57
2023-02-07T08:25:02.174Z,7.90
2023-02-07T08:27:28.830Z,7.13
2023-02-07T08:29:55.505Z,7.37
2023-02-07T08:32:22.212Z,9.17
2023-02-07T08:34:48.804Z,5.70
2023-02-07T08:37:15.371Z,5.47
2023-02-07T08:39:41.968Z,5.93
2023-02-07T08:42:08.738Z,3.97
2023-02-07T08:44:36.045Z,6.23
2023-02-07T08:47:02.951Z,7.03
2023-02-07T08:49:30.011Z,4.53
2023-02-07T08:51:56.802Z,4.50
2023-02-07T08:54:23.445Z,5.27
2023-02-07T08:56:50.233Z,2.77
2023-02-07T08:59:16.897Z,5.97
2023-02-07T09:01:43.513Z,5.13
2023-02-07T09:04:11.628Z,5.57
2023-02-07T09:06:38.918Z,5.07
2023-02-07T09:09:06.071Z,5.43
2023-02-07T09:11:33.109Z,5.27
2023-02-07T09:13:59.750Z,6.20
2023-02-07T09:16:26.483Z,3.07
2023-02-07T09:18:53.099Z,5.50
2023-02-07T09:21:19.852Z,5.97
2023-02-07T09:23:46.538Z,5.87
2023-02-07T09:26:18.268Z,6.13
2023-02-07T09:28:45.021Z,8.90
2023-02-07T09:31:13.236Z,6.93
2023-02-07T09:33:40.501Z,7.63
2023-02-07T09:36:19.221Z,6.50
2023-02-07T09:38:45.911Z,5.50
2023-02-07T09:41:26.568Z,6.30
2023-02-07T09:44:08.386Z,6.33
2023-02-07T09:46:38.428Z,5.60
2023-02-07T09:49:28.098Z,6.70
2023-02-07T09:51:56.832Z,5.40
2023-02-07T09:54:50.706Z,6.37
2023-02-07T09:57:21.418Z,4.60
2023-02-07T10:00:14.561Z,6.23
2023-02-07T10:03:06.284Z,5.67
2023-02-07T10:06:09.166Z,6.63
2023-02-07T10:08:45.644Z,5.37
2023-02-07T10:11:18.970Z,5.17
2023-02-07T10:13:55.395Z,4.73
2023-02-07T10:16:59.593Z,8.60
2023-02-07T10:19:58.079Z,5.67
2023-02-07T10:22:31.642Z,5.30
2023-02-07T10:25:08.601Z,3.67
2023-02-07T10:28:02.084Z,4.37
2023-02-07T10:30:31.836Z,3.90
2023-02-07T10:33:30.582Z,5.77
2023-02-07T10:35:57.524Z,5.67
2023-02-07T10:38:48.850Z,5.93
2023-02-07T10:41:22.291Z,6.57
2023-02-07T10:43:49.111Z,9.20
2023-02-07T10:46:17.381Z,7.63
2023-02-07T10:48:44.118Z,7.43
2023-02-07T10:51:30.380Z,7.10
2023-02-07T10:54:08.896Z,7.17
2023-02-07T10:56:47.220Z,8.07
2023-02-07T10:59:35.834Z,7.30
2023-02-07T11:02:04.483Z,8.37
2023-02-07T11:04:39.444Z,7.87
2023-02-07T11:07:09.847Z,9.87
2023-02-07T11:09:37.959Z,10.67
2023-02-07T11:12:27.875Z,10.60
2023-02-07T11:15:03.032Z,9.50
2023-02-07T11:17:29.899Z,8.40
2023-02-07T11:19:56.898Z,8.53
2023-02-07T11:22:24.633Z,15.50
2023-02-07T11:24:53.725Z,10.07
2023-02-07T11:27:24.148Z,22.47
2023-02-07T11:29:57.610Z,11.20
2023-02-07T11:32:25.976Z,8.48
2023-02-07T11:34:58.221Z,7.63
2023-02-07T11:37:29.314Z,7.73
2023-02-07T11:40:09.715Z,6.47
2023-02-07T11:42:36.346Z,9.50
2023-02-07T11:45:05.139Z,8.63
2023-02-07T11:47:32.467Z,10.83
2023-02-07T11:50:01.468Z,12.07
2023-02-07T11:52:29.542Z,11.07
2023-02-07T11:55:02.428Z,8.63
2023-02-07T11:57:31.833Z,8.30
2023-02-07T12:00:10.837Z,21.90
2023-02-07T12:02:37.469Z,8.33
2023-02-07T12:05:13.182Z,9.93
2023-02-07T12:07:52.956Z,7.70
2023-02-07T12:10:30.216Z,11.43
2023-02-07T12:13:01.236Z,9.05
2023-02-07T12:15:27.755Z,9.43
2023-02-07T12:17:57.319Z,8.93
2023-02-07T12:20:29.784Z,8.37
2023-02-07T12:23:31.406Z,5.63
2023-02-07T12:26:01.849Z,7.53
2023-02-07T12:28:36.710Z,7.97
2023-02-07T12:31:13.486Z,9.93
2023-02-07T12:33:51.988Z,10.83
2023-02-07T12:36:27.609Z,7.13
2023-02-07T12:39:05.683Z,9.20
2023-02-07T12:41:38.328Z,9.00
2023-02-07T12:44:14.793Z,8.40
2023-02-07T12:47:25.836Z,10.53
2023-02-07T12:50:16.149Z,10.50
2023-02-07T12:53:19.514Z,11.43
2023-02-07T12:56:04.964Z,11.27
2023-02-07T12:58:57.596Z,8.37
2023-02-07T13:01:39.065Z,9.90
2023-02-07T13:04:30.082Z,7.40
2023-02-07T13:07:27.417Z,9.17
2023-02-07T13:10:24.234Z,9.97
2023-02-07T13:13:16.530Z,11.60
2023-02-07T13:15:51.911Z,8.83
2023-02-07T13:18:33.684Z,9.90
2023-02-07T13:21:06.368Z,8.73
2023-02-07T13:23:34.503Z,7.33
2023-02-07T13:26:06.275Z,12.20
2023-02-07T13:28:42.478Z,10.87
2023-02-07T13:31:11.857Z,10.07
2023-02-07T13:33:42.477Z,9.27
2023-02-07T13:36:30.365Z,10.57
2023-02-07T13:39:05.937Z,10.27
2023-02-07T13:41:34.087Z,10.23
2023-02-07T13:44:20.291Z,16.07
2023-02-07T13:47:17.913Z,11.97
2023-02-07T13:50:00.304Z,11.07
2023-02-07T13:52:43.714Z,10.60
2023-02-07T13:55:32.037Z,12.40
2023-02-07T13:58:17.541Z,11.10
2023-02-07T14:00:53.266Z,11.97
2023-02-07T14:03:28.979Z,8.80
2023-02-07T14:06:15.537Z,13.13
2023-02-07T14:08:43.796Z,12.63
2023-02-07T14:11:29.025Z,14.07
2023-02-07T14:14:28.998Z,11.00
2023-02-07T14:17:12.105Z,12.73
2023-02-07T14:19:44.138Z,11.40
2023-02-07T14:22:22.668Z,14.67
2023-02-07T14:24:58.492Z,11.37
2023-02-07T14:27:51.021Z,11.73
2023-02-07T14:30:39.084Z,14.30
2023-02-07T14:33:30.012Z,16.47
2023-02-07T14:36:16.006Z,16.70
2023-02-07T14:39:02.536Z,18.90
2023-02-07T14:41:31.407Z,17.87
2023-02-07T14:44:09.137Z,14.73
2023-02-07T14:46:42.553Z,16.60
2023-02-07T14:49:27.853Z,17.65
2023-02-07T14:52:08.076Z,18.53
2023-02-07T14:54:44.107Z,16.67
2023-02-07T14:57:25.898Z,14.97
2023-02-07T15:00:01.616Z,19.27
2023-02-07T15:02:51.943Z,27.40
2023-02-07T15:05:29.150Z,33.97
2023-02-07T15:08:06.457Z,23.30
2023-02-07T15:10:37.360Z,22.40
2023-02-07T15:13:07.079Z,18.87
2023-02-07T15:15:52.731Z,23.40
2023-02-07T15:18:20.257Z,31.67
2023-02-07T15:20:57.559Z,27.93
2023-02-07T15:23:26.973Z,27.20
2023-02-07T15:25:53.605Z,24.07
2023-02-07T15:28:31.958Z,29.57
2023-02-07T15:31:05.284Z,30.63
2023-02-07T15:33:40.130Z,32.87
2023-02-07T15:36:31.644Z,31.07
2023-02-07T15:38:59.891Z,48.40
2023-02-07T15:41:27.623Z,45.13
2023-02-07T15:44:06.660Z,36.10
2023-02-07T15:46:51.836Z,27.23
2023-02-07T15:49:29.533Z,24.10
2023-02-07T15:52:02.582Z,21.47
2023-02-07T15:54:29.263Z,20.33
2023-02-07T15:56:59.863Z,27.40
2023-02-07T15:59:29.916Z,28.03
2023-02-07T16:01:59.085Z,25.20
2023-02-07T16:04:30.926Z,19.83
2023-02-07T16:07:05.580Z,21.03
2023-02-07T16:09:40.997Z,21.27
2023-02-07T16:12:23.113Z,18.83
2023-02-07T16:14:49.817Z,19.77
2023-02-07T16:17:36.632Z,27.97
2023-02-07T16:20:03.304Z,19.53
2023-02-07T16:22:31.125Z,19.87
2023-02-07T16:25:01.589Z,22.03
2023-02-07T16:27:31.971Z,19.37
2023-02-07T16:29:59.703Z,17.23
2023-02-07T16:32:34.317Z,22.90
2023-02-07T16:35:01.026Z,30.33
2023-02-07T16:37:28.332Z,22.97
2023-02-07T16:39:55.170Z,30.00
2023-02-07T16:42:21.784Z,34.87
2023-02-07T16:44:48.691Z,15.73
2023-02-07T16:47:15.540Z,21.63
2023-02-07T16:49:44.263Z,20.97
2023-02-07T16:52:13.539Z,18.80
2023-02-07T16:54:40.217Z,21.97
2023-02-07T16:57:06.932Z,18.53
2023-02-07T16:59:33.591Z,20.67
2023-02-07T17:02:00.286Z,12.93
2023-02-07T17:04:26.918Z,16.63
2023-02-07T17:06:53.518Z,20.30
2023-02-07T17:09:23.161Z,33.00
2023-02-07T17:11:50.583Z,18.23
2023-02-07T17:14:17.178Z,21.10
2023-02-07T17:16:45.581Z,16.17
2023-02-07T17:19:23.096Z,20.20
2023-02-07T17:21:51.809Z,20.23
2023-02-07T17:24:18.888Z,15.60
2023-02-07T17:26:50.255Z,18.70
2023-02-07T17:29:17.745Z,24.73
2023-02-07T17:31:44.963Z,17.07
2023-02-07T17:34:11.743Z,13.27
2023-02-07T17:36:40.574Z,17.53
2023-02-07T17:39:10.227Z,20.53
2023-02-07T17:41:36.819Z,18.90
2023-02-07T17:44:03.559Z,22.03
2023-02-07T17:46:30.224Z,14.43
2023-02-07T17:48:56.971Z,14.90
2023-02-07T17:51:26.661Z,22.10
2023-02-07T17:53:54.411Z,17.80
2023-02-07T17:56:24.421Z,21.73
2023-02-07T17:58:55.758Z,18.57
2023-02-07T18:01:24.003Z,20.83
2023-02-07T18:03:55.878Z,20.80
2023-02-07T18:06:25.009Z,21.47
2023-02-07T18:08:51.804Z,13.83
2023-02-07T18:11:18.839Z,18.73
2023-02-07T18:13:47.282Z,19.17
2023-02-07T18:16:24.041Z,12.80
2023-02-07T18:18:51.732Z,23.10
2023-02-07T18:21:18.767Z,19.27
2023-02-07T18:23:45.697Z,13.50
2023-02-07T18:26:15.143Z,15.00
2023-02-07T18:28:43.296Z,17.33
2023-02-07T18:31:15.173Z,14.50
2023-02-07T18:33:42.002Z,11.10
2023-02-07T18:36:09.245Z,11.57
2023-02-07T18:38:36.382Z,12.97
2023-02-07T18:41:14.404Z,7.53
2023-02-07T18:43:41.686Z,11.10
2023-02-07T18:46:15.060Z,10.80
2023-02-07T18:48:41.806Z,13.30
2023-02-07T18:51:12.299Z,10.97
2023-02-07T18:53:39.265Z,11.53
2023-02-07T18:56:07.346Z,11.90
2023-02-07T18:58:34.545Z,12.80
2023-02-07T19:01:10.085Z,14.23
2023-02-07T19:03:41.540Z,14.70
2023-02-07T19:06:08.210Z,14.20
2023-02-07T19:08:35.452Z,13.20
2023-02-07T19:11:05.451Z,18.73
2023-02-07T19:13:33.236Z,19.37
2023-02-07T19:16:12.577Z,18.43
2023-02-07T19:18:39.618Z,15.13
2023-02-07T19:21:09.233Z,14.07
2023-02-07T19:23:36.470Z,12.37
2023-02-07T19:26:05.982Z,14.77
2023-02-07T19:28:34.214Z,12.33
2023-02-07T19:31:03.884Z,13.70
2023-02-07T19:33:30.595Z,15.80
2023-02-07T19:35:57.253Z,15.77
2023-02-07T19:38:23.912Z,10.30
2023-02-07T19:40:58.045Z,14.90
2023-02-07T19:43:24.939Z,14.33
2023-02-07T19:45:51.796Z,11.47
2023-02-07T19:48:18.402Z,11.63
2023-02-07T19:50:45.265Z,9.80
2023-02-07T19:53:11.991Z,12.30
2023-02-07T19:55:39.220Z,10.10
2023-02-07T19:58:06.178Z,9.93
2023-02-07T20:00:32.956Z,11.30
2023-02-07T20:03:00.690Z,11.83
2023-02-07T20:05:27.907Z,15.73
2023-02-07T20:07:54.929Z,17.80
2023-02-07T20:10:21.519Z,21.67
2023-02-07T20:12:49.006Z,23.33
2023-02-07T20:15:15.861Z,15.37
2023-02-07T20:17:42.870Z,13.20
2023-02-07T20:20:09.995Z,15.50
2023-02-07T20:22:36.576Z,19.80
2023-02-07T20:25:03.502Z,20.90
2023-02-07T20:27:30.193Z,25.83
2023-02-07T20:29:56.799Z,25.77
2023-02-07T20:32:23.410Z,21.37
2023-02-07T20:34:50.110Z,17.60
2023-02-07T20:37:16.660Z,17.83
2023-02-07T20:39:43.276Z,18.10
2023-02-07T20:42:10.487Z,18.07
2023-02-07T20:44:37.094Z,13.67
2023-02-07T20:47:04.919Z,23.53
2023-02-07T20:49:32.119Z,11.90
2023-02-07T20:51:59.532Z,25.57
2023-02-07T20:54:28.740Z,20.07
2023-02-07T20:56:56.066Z,17.67
2023-02-07T20:59:28.503Z,18.67
2023-02-07T21:01:55.755Z,23.07
2023-02-07T21:04:22.680Z,17.47
2023-02-07T21:06:50.586Z,15.83
2023-02-07T21:09:18.363Z,17.40
2023-02-07T21:11:47.851Z,18.73
2023-02-07T21:14:31.974Z,19.13
2023-02-07T21:17:01.569Z,21.50
2023-02-07T21:19:28.665Z,23.07
2023-02-07T21:21:55.302Z,27.47
2023-02-07T21:24:22.195Z,26.93
2023-02-07T21:26:49.634Z,27.30
2023-02-07T21:29:16.437Z,33.73
2023-02-07T21:31:43.409Z,39.73
2023-02-07T21:34:10.029Z,28.00
2023-02-07T21:36:40.451Z,30.97
2023-02-07T21:39:10.553Z,28.30
2023-02-07T21:41:38.960Z,32.33
2023-02-07T21:44:05.661Z,29.90
2023-02-07T21:46:35.189Z,30.13
2023-02-07T21:49:04.591Z,37.23
2023-02-07T21:51:33.576Z,31.03
2023-02-07T21:54:01.088Z,28.13
2023-02-07T21:56:32.890Z,33.70
2023-02-07T21:59:02.262Z,30.53
2023-02-07T22:01:30.449Z,33.67
2023-02-07T22:04:00.130Z,32.27
2023-02-07T22:06:27.557Z,34.17
2023-02-07T22:08:56.978Z,33.20
2023-02-07T22:11:25.264Z,30.03
2023-02-07T22:13:52.876Z,28.23
2023-02-07T22:16:21.861Z,30.37
2023-02-07T22:18:48.941Z,29.07
2023-02-07T22:21:20.962Z,28.87
2023-02-07T22:23:47.748Z,27.10
2023-02-07T22:26:15.053Z,50.83
2023-02-07T22:28:42.340Z,26.30
2023-02-07T22:31:18.409Z,43.53
2023-02-07T22:33:45.768Z,37.07
2023-02-07T22:36:21.117Z,94.03
2023-02-07T22:38:48.333Z,45.20
2023-02-07T22:41:15.663Z,41.43
2023-02-07T22:43:42.543Z,39.10
2023-02-07T22:46:12.729Z,35.17
2023-02-07T22:48:39.467Z,28.17
2023-02-07T22:51:17.858Z,41.03
2023-02-07T22:53:44.531Z,53.23
2023-02-07T22:56:11.577Z,72.50
2023-02-07T22:58:38.549Z,49.20
2023-02-07T23:01:06.089Z,18.63
2023-02-07T23:03:33.428Z,33.40
2023-02-07T23:06:04.971Z,23.10
2023-02-07T23:08:31.728Z,15.17
2023-02-07T23:10:58.340Z,18.60
2023-02-07T23:13:24.914Z,15.33
2023-02-07T23:15:51.551Z,13.47
2023-02-07T23:18:18.172Z,80.17
2023-02-07T23:20:45.903Z,14.03
2023-02-07T23:23:13.209Z,13.33
2023-02-07T23:25:44.384Z,108.87
2023-02-07T23:28:11.510Z,30.63
2023-02-07T23:30:38.884Z,18.40
2023-02-07T23:33:07.525Z,13.90
2023-02-07T23:35:34.460Z,14.93
2023-02-07T23:38:02.116Z,15.67
2023-02-07T23:40:29.018Z,13.57
2023-02-07T23:42:56.061Z,13.90
2023-02-07T23:45:22.760Z,17.67
2023-02-07T23:47:49.333Z,11.30
2023-02-07T23:50:15.991Z,16.53
2023-02-07T23:52:42.606Z,10.90
2023-02-07T23:55:09.201Z,10.43
2023-02-07T23:57:35.880Z,11.27
